sensor_id;sensor_type;location;lat;lon;timestamp;pressure;altitude;pressure_sealevel;temperature;humidity
6034;BME280;3045;43.226;27.858;2023-12-07T00:00:12;7754.41;;;9.71;100.00
6034;BME280;3045;43.226;27.858;2023-12-07T00:02:39;8073.16;;;9.64;100.00
6034;BME280;3045;43.226;27.858;2023-12-07T00:05:07;7435.09;;;9.74;100.00
6034;BME280;3045;43.226;27.858;2023-12-07T00:07:34;6795.72;;;9.75;100.00
6034;BME280;3045;43.226;27.858;2023-12-07T00:10:04;6473.59;;;9.59;100.00
6034;BME280;3045;43.226;27.858;2023-12-07T00:12:31;6474.31;;;9.64;100.00
6034;BME280;3045;43.226;27.858;2023-12-07T00:14:58;6794.66;;;9.68;100.00
6034;BME280;3045;43.226;27.858;2023-12-07T00:17:25;6792.78;;;9.56;100.00
6034;BME280;3045;43.226;27.858;2023-12-07T00:19:52;6155.66;;;9.71;100.00
6034;BME280;3045;43.226;27.858;2023-12-07T00:22:19;6155.66;;;9.71;100.00
6034;BME280;3045;43.226;27.858;2023-12-07T00:24:46;6793.34;;;9.60;100.00
6034;BME280;3045;43.226;27.858;2023-12-07T00:27:15;6472.97;;;9.55;100.00
6034;BME280;3045;43.226;27.858;2023-12-07T00:29:42;6469.50;;;9.33;100.00
6034;BME280;3045;43.226;27.858;2023-12-07T00:32:09;6794.50;;;9.67;100.00
6034;BME280;3045;43.226;27.858;2023-12-07T00:34:36;7432.50;;;9.58;100.00
6034;BME280;3045;43.226;27.858;2023-12-07T00:37:03;8074.25;;;9.71;100.00
6034;BME280;3045;43.226;27.858;2023-12-07T00:39:30;7434.16;;;9.68;100.00
6034;BME280;3045;43.226;27.858;2023-12-07T00:41:58;7435.72;;;9.77;100.00
6034;BME280;3045;43.226;27.858;2023-12-07T00:44:26;7433.03;;;9.61;100.00
6034;BME280;3045;43.226;27.858;2023-12-07T00:46:53;7434.84;;;9.72;100.00
6034;BME280;3045;43.226;27.858;2023-12-07T00:49:20;7434.00;;;9.67;100.00
6034;BME280;3045;43.226;27.858;2023-12-07T00:51:47;7114.22;;;9.67;100.00
6034;BME280;3045;43.226;27.858;2023-12-07T00:54:14;6793.25;;;9.59;100.00
6034;BME280;3045;43.226;27.858;2023-12-07T00:56:41;7433.03;;;9.61;100.00
6034;BME280;3045;43.226;27.858;2023-12-07T00:59:08;8073.88;;;9.69;100.00
6034;BME280;3045;43.226;27.858;2023-12-07T01:01:37;8392.63;;;9.62;100.00
6034;BME280;3045;43.226;27.858;2023-12-07T01:04:05;7434.00;;;9.67;100.00
6034;BME280;3045;43.226;27.858;2023-12-07T01:06:32;7753.34;;;9.64;100.00
6034;BME280;3045;43.226;27.858;2023-12-07T01:08:59;7115.31;;;9.74;100.00
6034;BME280;3045;43.226;27.858;2023-12-07T01:11:26;6796.53;;;9.80;100.00
6034;BME280;3045;43.226;27.858;2023-12-07T01:13:53;6476.34;;;9.77;100.00
6034;BME280;3045;43.226;27.858;2023-12-07T01:16:20;6476.44;;;9.78;100.00
6034;BME280;3045;43.226;27.858;2023-12-07T01:18:48;6156.78;;;9.78;100.00
6034;BME280;3045;43.226;27.858;2023-12-07T01:21:15;5837.38;;;9.80;100.00
6034;BME280;3045;43.226;27.858;2023-12-07T01:23:42;4876.75;;;9.67;100.00
6034;BME280;3045;43.226;27.858;2023-12-07T01:26:09;5195.41;;;9.60;100.00
6034;BME280;3045;43.226;27.858;2023-12-07T01:28:36;5517.00;;;9.75;100.00
6034;BME280;3045;43.226;27.858;2023-12-07T01:31:04;4876.81;;;9.68;100.00
6034;BME280;3045;43.226;27.858;2023-12-07T01:33:31;4238.81;;;9.76;100.00
6034;BME280;3045;43.226;27.858;2023-12-07T01:35:59;4239.13;;;9.79;100.00
6034;BME280;3045;43.226;27.858;2023-12-07T01:38:26;4877.72;;;9.75;100.00
6034;BME280;3045;43.226;27.858;2023-12-07T01:40:53;4555.31;;;9.52;100.00
6034;BME280;3045;43.226;27.858;2023-12-07T01:43:22;4553.63;;;9.38;100.00
6034;BME280;3045;43.226;27.858;2023-12-07T01:45:50;3917.66;;;9.61;100.00
6034;BME280;3045;43.226;27.858;2023-12-07T01:48:19;4876.66;;;9.67;100.00
6034;BME280;3045;43.226;27.858;2023-12-07T01:50:46;4876.59;;;9.66;100.00
6034;BME280;3045;43.226;27.858;2023-12-07T01:53:16;5514.66;;;9.58;100.00
6034;BME280;3045;43.226;27.858;2023-12-07T01:55:44;4875.75;;;9.59;100.00
6034;BME280;3045;43.226;27.858;2023-12-07T01:58:12;6472.66;;;9.53;100.00
6034;BME280;3045;43.226;27.858;2023-12-07T02:00:39;6471.56;;;9.46;100.00
6034;BME280;3045;43.226;27.858;2023-12-07T02:03:06;6792.13;;;9.52;100.00
6034;BME280;3045;43.226;27.858;2023-12-07T02:05:34;7111.44;;;9.50;100.00
6034;BME280;3045;43.226;27.858;2023-12-07T02:08:01;7430.59;;;9.47;100.00
6034;BME280;3045;43.226;27.858;2023-12-07T02:10:30;7749.22;;;9.41;100.00
6034;BME280;3045;43.226;27.858;2023-12-07T02:12:57;6791.63;;;9.49;100.00
6034;BME280;3045;43.226;27.858;2023-12-07T02:15:24;7111.28;;;9.49;100.00
6034;BME280;3045;43.226;27.858;2023-12-07T02:17:58;7110.69;;;9.46;100.00
6034;BME280;3045;43.226;27.858;2023-12-07T02:20:32;7110.94;;;9.47;100.00
6034;BME280;3045;43.226;27.858;2023-12-07T02:23:06;6471.72;;;9.47;100.00
6034;BME280;3045;43.226;27.858;2023-12-07T02:25:40;7432.00;;;9.55;100.00
6034;BME280;3045;43.226;27.858;2023-12-07T02:28:30;7431.03;;;9.50;100.00
6034;BME280;3045;43.226;27.858;2023-12-07T02:30:57;8389.59;;;9.46;100.00
6034;BME280;3045;43.226;27.858;2023-12-07T02:33:24;8067.56;;;9.34;100.00
6034;BME280;3045;43.226;27.858;2023-12-07T02:35:51;7748.97;;;9.40;100.00
6034;BME280;3045;43.226;27.858;2023-12-07T02:38:18;7424.38;;;9.11;100.00
6034;BME280;3045;43.226;27.858;2023-12-07T02:40:48;8070.03;;;9.47;100.00
6034;BME280;3045;43.226;27.858;2023-12-07T02:43:16;8389.59;;;9.46;100.00
6034;BME280;3045;43.226;27.858;2023-12-07T02:45:45;9661.16;;;9.09;100.00
6034;BME280;3045;43.226;27.858;2023-12-07T02:48:12;8707.81;;;9.38;100.00
6034;BME280;3045;43.226;27.858;2023-12-07T02:50:39;9345.34;;;9.28;100.00
6034;BME280;3045;43.226;27.858;2023-12-07T02:53:06;9025.22;;;9.26;100.00
6034;BME280;3045;43.226;27.858;2023-12-07T02:55:33;8067.38;;;9.33;100.00
6034;BME280;3045;43.226;27.858;2023-12-07T02:58:00;9026.59;;;9.33;100.00
6034;BME280;3045;43.226;27.858;2023-12-07T03:00:27;9984.19;;;9.25;100.00
6034;BME280;3045;43.226;27.858;2023-12-07T03:02:56;9342.59;;;9.14;100.00
6034;BME280;3045;43.226;27.858;2023-12-07T03:05:23;9662.09;;;9.13;100.00
6034;BME280;3045;43.226;27.858;2023-12-07T03:07:50;8704.03;;;9.18;100.00
6034;BME280;3045;43.226;27.858;2023-12-07T03:10:17;8703.38;;;9.15;100.00
6034;BME280;3045;43.226;27.858;2023-12-07T03:12:44;8702.78;;;9.12;100.00
6034;BME280;3045;43.226;27.858;2023-12-07T03:15:11;9021.81;;;9.09;100.00
6034;BME280;3045;43.226;27.858;2023-12-07T03:17:39;8063.78;;;9.13;100.00
6034;BME280;3045;43.226;27.858;2023-12-07T03:20:08;8064.44;;;9.16;100.00
6034;BME280;3045;43.226;27.858;2023-12-07T03:22:35;9023.50;;;9.17;100.00
6034;BME280;3045;43.226;27.858;2023-12-07T03:25:03;10938.13;;;9.00;100.00
6034;BME280;3045;43.226;27.858;2023-12-07T03:27:30;10299.94;;;9.06;100.00
6034;BME280;3045;43.226;27.858;2023-12-07T03:29:57;9980.75;;;9.08;100.00
6034;BME280;3045;43.226;27.858;2023-12-07T03:32:24;8703.75;;;9.17;100.00
6034;BME280;3045;43.226;27.858;2023-12-07T03:34:51;10940.53;;;9.10;100.00
6034;BME280;3045;43.226;27.858;2023-12-07T03:37:19;9980.75;;;9.08;100.00
6034;BME280;3045;43.226;27.858;2023-12-07T03:39:46;10298.63;;;9.00;100.00
6034;BME280;3045;43.226;27.858;2023-12-07T03:42:14;9661.38;;;9.10;100.00
6034;BME280;3045;43.226;27.858;2023-12-07T03:44:41;8704.53;;;9.21;100.00
6034;BME280;3045;43.226;27.858;2023-12-07T03:47:09;9022.63;;;9.13;100.00
6034;BME280;3045;43.226;27.858;2023-12-07T03:49:36;10942.25;;;9.18;100.00
6034;BME280;3045;43.226;27.858;2023-12-07T03:52:04;10621.97;;;9.16;100.00
6034;BME280;3045;43.226;27.858;2023-12-07T03:54:33;9343.91;;;9.21;100.00
6034;BME280;3045;43.226;27.858;2023-12-07T03:57:01;9345.03;;;9.27;100.00
6034;BME280;3045;43.226;27.858;2023-12-07T03:59:28;9665.75;;;9.31;100.00
6034;BME280;3045;43.226;27.858;2023-12-07T04:01:55;9346.56;;;9.34;100.00
6034;BME280;3045;43.226;27.858;2023-12-07T04:04:22;9345.16;;;9.27;100.00
6034;BME280;3045;43.226;27.858;2023-12-07T04:06:49;9024.81;;;9.24;100.00
6034;BME280;3045;43.226;27.858;2023-12-07T04:09:16;9021.81;;;9.09;100.00
6034;BME280;3045;43.226;27.858;2023-12-07T04:11:44;7743.63;;;9.09;100.00
6034;BME280;3045;43.226;27.858;2023-12-07T04:14:12;8702.78;;;9.12;100.00
6034;BME280;3045;43.226;27.858;2023-12-07T04:16:40;7423.69;;;9.07;100.00
6034;BME280;3045;43.226;27.858;2023-12-07T04:19:07;8061.22;;;8.99;100.00
6034;BME280;3045;43.226;27.858;2023-12-07T04:21:34;8377.91;;;8.84;100.00
6034;BME280;3045;43.226;27.858;2023-12-07T04:24:02;7418.00;;;8.74;100.00
6034;BME280;3045;43.226;27.858;2023-12-07T04:26:29;4864.88;;;8.76;100.00
6034;BME280;3045;43.226;27.858;2023-12-07T04:28:57;3588.38;;;8.71;100.00
6034;BME280;3045;43.226;27.858;2023-12-07T04:31:25;3269.44;;;8.70;100.00
6034;BME280;3045;43.226;27.858;2023-12-07T04:33:52;1036.81;;;8.52;100.00
6034;BME280;3045;43.226;27.858;2023-12-07T04:36:19;-1192.44;;;8.51;100.00
6034;BME280;3045;43.226;27.858;2023-12-07T04:38:46;-1829.19;;;8.46;100.00
6034;BME280;3045;43.226;27.858;2023-12-07T04:41:13;-1193.06;;;8.31;100.00
6034;BME280;3045;43.226;27.858;2023-12-07T04:43:40;-238.53;;;8.24;100.00
6034;BME280;3045;43.226;27.858;2023-12-07T04:46:08;1035.19;;;8.28;100.00
6034;BME280;3045;43.226;27.858;2023-12-07T04:48:35;2625.75;;;8.06;100.00
6034;BME280;3045;43.226;27.858;2023-12-07T04:51:03;2625.81;;;8.07;100.00
6034;BME280;3045;43.226;27.858;2023-12-07T04:53:30;3261.53;;;7.94;100.00
6034;BME280;3045;43.226;27.858;2023-12-07T04:55:57;5173.88;;;8.01;100.00
6034;BME280;3045;43.226;27.858;2023-12-07T04:58:24;6765.38;;;7.86;100.00
6034;BME280;3045;43.226;27.858;2023-12-07T05:00:51;7402.72;;;7.84;100.00
6034;BME280;3045;43.226;27.858;2023-12-07T05:03:19;8677.81;;;7.81;100.00
6034;BME280;3045;43.226;27.858;2023-12-07T05:05:47;9634.59;;;7.80;100.00
6034;BME280;3045;43.226;27.858;2023-12-07T05:08:15;11225.22;;;7.59;100.00
6034;BME280;3045;43.226;27.858;2023-12-07T05:10:43;10590.72;;;7.75;100.00
6034;BME280;3045;43.226;27.858;2023-12-07T05:13:10;11867.09;;;7.74;100.00
6034;BME280;3045;43.226;27.858;2023-12-07T05:15:37;12185.94;;;7.73;100.00
6034;BME280;3045;43.226;27.858;2023-12-07T05:18:05;13143.16;;;7.70;100.00
6034;BME280;3045;43.226;27.858;2023-12-07T05:20:33;12505.59;;;7.74;100.00
6034;BME280;3045;43.226;27.858;2023-12-07T05:23:01;14097.44;;;7.57;100.00
6034;BME280;3045;43.226;27.858;2023-12-07T05:25:28;13143.69;;;7.72;100.00
6034;BME280;3045;43.226;27.858;2023-12-07T05:27:55;11550.78;;;7.87;100.00
6034;BME280;3045;43.226;27.858;2023-12-07T05:30:23;14097.16;;;7.56;100.00
6034;BME280;3045;43.226;27.858;2023-12-07T05:32:50;12824.63;;;7.73;100.00
6034;BME280;3045;43.226;27.858;2023-12-07T05:35:17;11864.66;;;7.64;100.00
6034;BME280;3045;43.226;27.858;2023-12-07T05:37:46;10903.16;;;7.46;100.00
6034;BME280;3045;43.226;27.858;2023-12-07T05:40:13;10585.22;;;7.51;100.00
6034;BME280;3045;43.226;27.858;2023-12-07T05:42:41;11543.69;;;7.57;100.00
6034;BME280;3045;43.226;27.858;2023-12-07T05:45:09;10905.81;;;7.58;100.00
6034;BME280;3045;43.226;27.858;2023-12-07T05:47:36;12820.19;;;7.56;100.00
6034;BME280;3045;43.226;27.858;2023-12-07T05:50:03;12500.88;;;7.56;100.00
6034;BME280;3045;43.226;27.858;2023-12-07T05:52:31;13775.22;;;7.46;100.00
6034;BME280;3045;43.226;27.858;2023-12-07T05:54:59;14414.22;;;7.48;100.00
6034;BME280;3045;43.226;27.858;2023-12-07T05:57:26;13774.78;;;7.45;100.00
6034;BME280;3045;43.226;27.858;2023-12-07T05:59:53;13773.53;;;7.40;100.00
6034;BME280;3045;43.226;27.858;2023-12-07T06:02:21;14092.50;;;7.39;100.00
6034;BME280;3045;43.226;27.858;2023-12-07T06:04:48;14091.22;;;7.34;100.00
6034;BME280;3045;43.226;27.858;2023-12-07T06:07:15;15369.91;;;7.40;100.00
6034;BME280;3045;43.226;27.858;2023-12-07T06:09:42;14731.66;;;7.41;100.00
6034;BME280;3045;43.226;27.858;2023-12-07T06:12:10;14096.03;;;7.52;100.00
6034;BME280;3045;43.226;27.858;2023-12-07T06:14:37;14412.34;;;7.41;100.00
6034;BME280;3045;43.226;27.858;2023-12-07T06:17:04;16332.47;;;7.53;100.00
6034;BME280;3045;43.226;27.858;2023-12-07T06:19:33;16650.72;;;7.49;100.00
6034;BME280;3045;43.226;27.858;2023-12-07T06:22:00;15693.13;;;7.52;100.00
6034;BME280;3045;43.226;27.858;2023-12-07T06:24:27;15989.13;;;6.76;100.00
6034;BME280;3045;43.226;27.858;2023-12-07T06:26:54;16649.59;;;7.46;100.00
6034;BME280;3045;43.226;27.858;2023-12-07T06:29:23;15046.53;;;7.26;100.00
6034;BME280;3045;43.226;27.858;2023-12-07T06:31:50;14414.78;;;7.50;100.00
6034;BME280;3045;43.226;27.858;2023-12-07T06:34:17;14074.19;;;6.73;100.00
6034;BME280;3045;43.226;27.858;2023-12-07T06:36:45;14417.38;;;7.59;100.00
6034;BME280;3045;43.226;27.858;2023-12-07T06:39:13;15699.16;;;7.72;100.00
6034;BME280;3045;43.226;27.858;2023-12-07T06:41:40;14103.94;;;7.80;100.00
6034;BME280;3045;43.226;27.858;2023-12-07T06:44:07;13787.09;;;7.90;100.00
6034;BME280;3045;43.226;27.858;2023-12-07T06:46:35;12192.72;;;8.00;100.00
6034;BME280;3045;43.226;27.858;2023-12-07T06:49:02;14420.38;;;7.69;100.00
6034;BME280;3045;43.226;27.858;2023-12-07T06:51:29;11548.38;;;7.76;100.00
6034;BME280;3045;43.226;27.858;2023-12-07T06:53:57;10272.06;;;7.77;100.00
6034;BME280;3045;43.226;27.858;2023-12-07T06:56:24;9954.50;;;7.85;100.00
6034;BME280;3045;43.226;27.858;2023-12-07T06:58:52;9956.63;;;7.95;100.00
6034;BME280;3045;43.226;27.858;2023-12-07T07:01:19;10914.41;;;7.96;100.00
6034;BME280;3045;43.226;27.858;2023-12-07T07:03:47;11552.22;;;7.93;100.00
6034;BME280;3045;43.226;27.858;2023-12-07T07:06:14;10276.56;;;7.98;100.00
6034;BME280;3045;43.226;27.858;2023-12-07T07:08:41;11231.78;;;7.88;100.00
6034;BME280;3045;43.226;27.858;2023-12-07T07:11:12;10273.03;;;7.82;100.00
6034;BME280;3045;43.226;27.858;2023-12-07T07:13:40;9636.38;;;7.89;100.00
6034;BME280;3045;43.226;27.858;2023-12-07T07:16:08;9317.31;;;7.89;100.00
6034;BME280;3045;43.226;27.858;2023-12-07T07:18:37;10911.88;;;7.85;100.00
6034;BME280;3045;43.226;27.858;2023-12-07T07:21:06;9952.25;;;7.74;100.00
6034;BME280;3045;43.226;27.858;2023-12-07T07:23:34;10276.66;;;7.99;100.00
6034;BME280;3045;43.226;27.858;2023-12-07T07:26:01;11232.50;;;7.91;100.00
6034;BME280;3045;43.226;27.858;2023-12-07T07:28:28;12508.41;;;7.86;100.00
6034;BME280;3045;43.226;27.858;2023-12-07T07:30:55;11225.22;;;7.59;100.00
6034;BME280;3045;43.226;27.858;2023-12-07T07:33:22;11550.91;;;7.87;100.00
6034;BME280;3045;43.226;27.858;2023-12-07T07:35:49;10914.97;;;7.98;100.00
6034;BME280;3045;43.226;27.858;2023-12-07T07:38:18;10597.22;;;8.05;100.00
6034;BME280;3045;43.226;27.858;2023-12-07T07:40:45;10278.75;;;8.08;100.00
6034;BME280;3045;43.226;27.858;2023-12-07T07:43:14;10279.63;;;8.12;100.00
6034;BME280;3045;43.226;27.858;2023-12-07T07:45:41;10597.44;;;8.06;100.00
6034;BME280;3045;43.226;27.858;2023-12-07T07:48:09;11557.75;;;8.16;100.00
6034;BME280;3045;43.226;27.858;2023-12-07T07:50:36;9641.06;;;8.12;100.00
6034;BME280;3045;43.226;27.858;2023-12-07T07:53:03;8047.13;;;8.21;100.00
6034;BME280;3045;43.226;27.858;2023-12-07T07:55:32;8681.59;;;8.01;100.00
6034;BME280;3045;43.226;27.858;2023-12-07T07:57:59;8361.44;;;7.95;100.00
6034;BME280;3045;43.226;27.858;2023-12-07T08:00:26;5811.78;;;8.04;100.00
6034;BME280;3045;43.226;27.858;2023-12-07T08:02:53;4537.16;;;8.06;100.00
6034;BME280;3045;43.226;27.858;2023-12-07T08:05:20;3900.91;;;8.15;100.00
6034;BME280;3045;43.226;27.858;2023-12-07T08:07:47;4219.34;;;8.13;100.00
6034;BME280;3045;43.226;27.858;2023-12-07T08:10:16;3264.41;;;8.22;100.00
6034;BME280;3045;43.226;27.858;2023-12-07T08:12:45;2945.69;;;8.21;100.00
6034;BME280;3045;43.226;27.858;2023-12-07T08:15:12;3264.19;;;8.20;100.00
6034;BME280;3045;43.226;27.858;2023-12-07T08:17:39;1350.97;;;7.91;100.00
6034;BME280;3045;43.226;27.858;2023-12-07T08:20:08;-557.13;;;8.17;100.00
6034;BME280;3045;43.226;27.858;2023-12-07T08:22:36;-557.59;;;8.06;100.00
6034;BME280;3045;43.226;27.858;2023-12-07T08:25:03;-1829.91;;;8.12;100.00
6034;BME280;3045;43.226;27.858;2023-12-07T08:27:31;-2783.94;;;8.27;100.00
6034;BME280;3045;43.226;27.858;2023-12-07T08:30:00;-3101.97;;;8.38;100.00
6034;BME280;3045;43.226;27.858;2023-12-07T08:32:28;-4373.72;;;8.19;100.00
6034;BME280;3045;43.226;27.858;2023-12-07T08:34:55;-6598.47;;;8.26;100.00
6034;BME280;3045;43.226;27.858;2023-12-07T08:37:22;-7551.53;;;8.28;100.00
6034;BME280;3045;43.226;27.858;2023-12-07T08:39:49;-7868.34;;;8.18;100.00
6034;BME280;3045;43.226;27.858;2023-12-07T08:42:16;-7233.97;;;8.29;100.00
6034;BME280;3045;43.226;27.858;2023-12-07T08:44:43;-6281.19;;;8.35;100.00
6034;BME280;3045;43.226;27.858;2023-12-07T08:47:12;-5645.34;;;8.28;100.00
6034;BME280;3045;43.226;27.858;2023-12-07T08:49:39;-5963.06;;;8.27;100.00
6034;BME280;3045;43.226;27.858;2023-12-07T08:52:06;-5645.00;;;8.20;100.00
6034;BME280;3045;43.226;27.858;2023-12-07T08:54:33;-6279.31;;;7.98;100.00
6034;BME280;3045;43.226;27.858;2023-12-07T08:57:01;-7232.38;;;8.05;100.00
6034;BME280;3045;43.226;27.858;2023-12-07T08:59:29;-5961.22;;;7.87;100.00
6034;BME280;3045;43.226;27.858;2023-12-07T09:01:56;-6913.91;;;7.90;100.00
6034;BME280;3045;43.226;27.858;2023-12-07T09:04:25;-6279.94;;;8.10;100.00
6034;BME280;3045;43.226;27.858;2023-12-07T09:06:52;-5644.28;;;8.02;100.00
6034;BME280;3045;43.226;27.858;2023-12-07T09:09:19;-5326.19;;;7.91;100.00
6034;BME280;3045;43.226;27.858;2023-12-07T09:11:47;-4373.53;;;8.10;100.00
6034;BME280;3045;43.226;27.858;2023-12-07T09:14:15;-4373.91;;;8.29;100.00
6034;BME280;3045;43.226;27.858;2023-12-07T09:16:43;-4373.81;;;8.24;100.00
6034;BME280;3045;43.226;27.858;2023-12-07T09:19:11;-4691.38;;;8.11;100.00
6034;BME280;3045;43.226;27.858;2023-12-07T09:21:41;-6598.50;;;8.27;100.00
6034;BME280;3045;43.226;27.858;2023-12-07T09:24:08;-7551.81;;;8.32;100.00
6034;BME280;3045;43.226;27.858;2023-12-07T09:26:35;-8504.56;;;8.32;100.00
6034;BME280;3045;43.226;27.858;2023-12-07T09:29:02;-9139.72;;;8.34;100.00
6034;BME280;3045;43.226;27.858;2023-12-07T09:31:31;-9775.38;;;8.41;100.00
6034;BME280;3045;43.226;27.858;2023-12-07T09:33:58;-10727.69;;;8.41;100.00
6034;BME280;3045;43.226;27.858;2023-12-07T09:36:25;-11361.16;;;8.32;100.00
6034;BME280;3045;43.226;27.858;2023-12-07T09:38:55;-11361.97;;;8.38;100.00
6034;BME280;3045;43.226;27.858;2023-12-07T09:41:22;-10727.56;;;8.40;100.00
6034;BME280;3045;43.226;27.858;2023-12-07T09:43:50;-9774.16;;;8.29;100.00
6034;BME280;3045;43.226;27.858;2023-12-07T09:46:17;-10090.56;;;8.20;100.00
6034;BME280;3045;43.226;27.858;2023-12-07T09:48:47;-10090.72;;;8.22;100.00
6034;BME280;3045;43.226;27.858;2023-12-07T09:51:15;-9774.16;;;8.29;100.00
6034;BME280;3045;43.226;27.858;2023-12-07T09:53:43;-8822.13;;;8.33;100.00
6034;BME280;3045;43.226;27.858;2023-12-07T09:56:13;-5009.28;;;8.15;100.00
6034;BME280;3045;43.226;27.858;2023-12-07T09:58:40;-6280.59;;;8.23;100.00
6034;BME280;3045;43.226;27.858;2023-12-07T10:01:07;-6916.69;;;8.35;100.00
6034;BME280;3045;43.226;27.858;2023-12-07T10:03:34;-2466.00;;;8.12;100.00
6034;BME280;3045;43.226;27.858;2023-12-07T10:06:01;-3102.00;;;8.17;100.00
6034;BME280;3045;43.226;27.858;2023-12-07T10:08:29;-3101.97;;;8.22;100.00
6034;BME280;3045;43.226;27.858;2023-12-07T10:11:07;-2783.97;;;8.17;100.00
6034;BME280;3045;43.226;27.858;2023-12-07T10:13:36;398.06;;;8.23;100.00
6034;BME280;3045;43.226;27.858;2023-12-07T10:16:11;715.88;;;8.14;100.00
6034;BME280;3045;43.226;27.858;2023-12-07T10:18:39;1035.44;;;8.32;100.00
6034;BME280;3045;43.226;27.858;2023-12-07T10:21:07;-237.84;;;8.39;100.00
6034;BME280;3045;43.226;27.858;2023-12-07T10:23:36;4221.03;;;8.27;100.00
6034;BME280;3045;43.226;27.858;2023-12-07T10:26:05;5178.31;;;8.34;100.00
6034;BME280;3045;43.226;27.858;2023-12-07T10:28:35;7092.19;;;8.34;100.00
6034;BME280;3045;43.226;27.858;2023-12-07T10:31:03;4539.03;;;8.21;100.00
6034;BME280;3045;43.226;27.858;2023-12-07T10:33:30;2628.25;;;8.33;100.00
6034;BME280;3045;43.226;27.858;2023-12-07T10:35:57;4858.59;;;8.27;100.00
6034;BME280;3045;43.226;27.858;2023-12-07T10:38:24;5177.53;;;8.28;100.00
6034;BME280;3045;43.226;27.858;2023-12-07T10:41:03;5818.59;;;8.51;100.00
6034;BME280;3045;43.226;27.858;2023-12-07T10:43:33;6138.00;;;8.53;100.00
6034;BME280;3045;43.226;27.858;2023-12-07T10:46:08;6139.06;;;8.60;100.00
6034;BME280;3045;43.226;27.858;2023-12-07T10:48:36;8054.09;;;8.59;100.00
6034;BME280;3045;43.226;27.858;2023-12-07T10:51:06;11237.91;;;8.14;100.00
6034;BME280;3045;43.226;27.858;2023-12-07T10:53:38;11567.25;;;8.56;100.00
6034;BME280;3045;43.226;27.858;2023-12-07T10:56:11;11886.75;;;8.55;100.00
6034;BME280;3045;43.226;27.858;2023-12-07T10:58:41;13487.34;;;8.63;100.00
6034;BME280;3045;43.226;27.858;2023-12-07T11:01:11;11565.69;;;8.49;100.00
6034;BME280;3045;43.226;27.858;2023-12-07T11:03:39;11883.81;;;8.43;100.00
6034;BME280;3045;43.226;27.858;2023-12-07T11:06:07;11884.78;;;8.47;100.00
6034;BME280;3045;43.226;27.858;2023-12-07T11:08:38;14439.66;;;8.37;100.00
6034;BME280;3045;43.226;27.858;2023-12-07T11:11:12;13798.88;;;8.33;100.00
6034;BME280;3045;43.226;27.858;2023-12-07T11:13:47;13479.88;;;8.35;100.00
6034;BME280;3045;43.226;27.858;2023-12-07T11:16:28;9642.94;;;8.21;100.00
6034;BME280;3045;43.226;27.858;2023-12-07T11:18:55;9645.78;;;8.35;100.00
6034;BME280;3045;43.226;27.858;2023-12-07T11:21:23;11240.94;;;8.27;100.00
6034;BME280;3045;43.226;27.858;2023-12-07T11:23:50;10600.34;;;8.19;100.00
6034;BME280;3045;43.226;27.858;2023-12-07T11:26:19;5173.88;;;8.01;100.00
6034;BME280;3045;43.226;27.858;2023-12-07T11:28:46;2624.47;;;7.93;100.00
6034;BME280;3045;43.226;27.858;2023-12-07T11:31:19;3257.41;;;7.54;100.00
6034;BME280;3045;43.226;27.858;2023-12-07T11:33:49;1666.06;;;7.50;100.00
6034;BME280;3045;43.226;27.858;2023-12-07T11:36:16;76.31;;;7.57;100.00
6034;BME280;3045;43.226;27.858;2023-12-07T11:39:17;-242.34;;;7.43;100.00
6034;BME280;3045;43.226;27.858;2023-12-07T11:41:49;-242.13;;;7.47;100.00
6034;BME280;3045;43.226;27.858;2023-12-07T11:44:17;75.06;;;7.33;100.00
6034;BME280;3045;43.226;27.858;2023-12-07T11:46:46;-243.31;;;7.22;100.00
6034;BME280;3045;43.226;27.858;2023-12-07T11:49:13;-879.06;;;7.14;100.00
6034;BME280;3045;43.226;27.858;2023-12-07T11:51:40;-1831.78;;;7.21;100.00
6034;BME280;3045;43.226;27.858;2023-12-07T11:54:07;-1832.19;;;7.02;100.00
6034;BME280;3045;43.226;27.858;2023-12-07T11:56:37;-2149.72;;;7.01;100.00
6034;BME280;3045;43.226;27.858;2023-12-07T11:59:04;-2150.28;;;6.64;100.00
6034;BME280;3045;43.226;27.858;2023-12-07T12:01:31;-1832.56;;;6.83;100.00
6034;BME280;3045;43.226;27.858;2023-12-07T12:04:00;-1515.38;;;6.74;100.00
6034;BME280;3045;43.226;27.858;2023-12-07T12:06:27;-245.66;;;6.71;100.00
6034;BME280;3045;43.226;27.858;2023-12-07T12:08:56;1660.91;;;6.83;100.00
6034;BME280;3045;43.226;27.858;2023-12-07T12:11:23;4840.22;;;6.84;100.00
6034;BME280;3045;43.226;27.858;2023-12-07T12:13:50;8020.50;;;6.73;100.00
6034;BME280;3045;43.226;27.858;2023-12-07T12:16:17;9293.53;;;6.71;100.00
6034;BME280;3045;43.226;27.858;2023-12-07T12:18:44;9930.13;;;6.69;100.00
6034;BME280;3045;43.226;27.858;2023-12-07T12:21:12;10886.88;;;6.74;100.00
6034;BME280;3045;43.226;27.858;2023-12-07T12:23:39;13431.69;;;6.56;100.00
6034;BME280;3045;43.226;27.858;2023-12-07T12:26:08;12476.97;;;6.61;100.00
6034;BME280;3045;43.226;27.858;2023-12-07T12:28:36;11519.25;;;6.54;100.00
6034;BME280;3045;43.226;27.858;2023-12-07T12:31:08;12794.91;;;6.58;100.00
6034;BME280;3045;43.226;27.858;2023-12-07T12:33:37;14068.16;;;6.52;100.00
6034;BME280;3045;43.226;27.858;2023-12-07T12:36:06;13747.03;;;6.43;100.00
6034;BME280;3045;43.226;27.858;2023-12-07T12:38:37;15018.59;;;6.31;100.00
6034;BME280;3045;43.226;27.858;2023-12-07T12:41:05;15981.63;;;6.52;100.00
6034;BME280;3045;43.226;27.858;2023-12-07T12:43:32;16620.63;;;6.55;100.00
6034;BME280;3045;43.226;27.858;2023-12-07T12:45:59;15981.94;;;6.53;100.00
6034;BME280;3045;43.226;27.858;2023-12-07T12:48:26;16300.94;;;6.53;100.00
6034;BME280;3045;43.226;27.858;2023-12-07T12:50:54;15661.13;;;6.47;100.00
6034;BME280;3045;43.226;27.858;2023-12-07T12:53:21;13426.28;;;6.35;100.00
6034;BME280;3045;43.226;27.858;2023-12-07T12:55:50;11511.22;;;6.20;100.00
6034;BME280;3045;43.226;27.858;2023-12-07T12:58:17;10554.88;;;6.14;100.00
6034;BME280;3045;43.226;27.858;2023-12-07T13:00:46;8643.47;;;6.01;100.00
6034;BME280;3045;43.226;27.858;2023-12-07T13:03:13;8326.13;;;6.05;100.00
6034;BME280;3045;43.226;27.858;2023-12-07T13:05:40;8009.03;;;6.10;100.00
6034;BME280;3045;43.226;27.858;2023-12-07T13:08:08;7054.19;;;6.04;100.00
6034;BME280;3045;43.226;27.858;2023-12-07T13:10:35;7052.78;;;5.95;100.00
6034;BME280;3045;43.226;27.858;2023-12-07T13:13:03;6734.41;;;5.91;100.00
6034;BME280;3045;43.226;27.858;2023-12-07T13:15:32;6417.56;;;5.97;100.00
6034;BME280;3045;43.226;27.858;2023-12-07T13:17:59;4828.53;;;5.93;100.00
6034;BME280;3045;43.226;27.858;2023-12-07T13:20:26;4511.28;;;5.96;100.00